createdAt,value
2018-07-05T00:01:32.847Z,61.70
2018-07-05T00:04:15.416Z,61.80
2018-07-05T00:07:00.568Z,61.80
2018-07-05T00:09:48.994Z,61.90
2018-07-05T00:12:30.871Z,61.90
2018-07-05T00:15:12.447Z,61.90
2018-07-05T00:17:54.824Z,61.90
2018-07-05T00:20:35.899Z,62.00
2018-07-05T00:23:19.730Z,62.10
2018-07-05T00:26:00.251Z,62.10
2018-07-05T00:31:20.255Z,62.20
2018-07-05T00:34:03.510Z,62.30
2018-07-05T00:36:44.670Z,62.30
2018-07-05T00:39:26.907Z,62.30
2018-07-05T00:42:08.417Z,62.30
2018-07-05T00:44:49.952Z,62.40
2018-07-05T00:47:31.247Z,62.40
2018-07-05T00:50:14.145Z,62.40
2018-07-05T00:52:54.998Z,62.50
2018-07-05T00:58:11.817Z,62.50
2018-07-05T01:00:52.763Z,62.50
2018-07-05T01:03:33.446Z,62.60
2018-07-05T01:06:15.898Z,62.50
2018-07-05T01:08:57.296Z,62.40
2018-07-05T01:11:38.332Z,62.50
2018-07-05T01:14:20.990Z,62.50
2018-07-05T01:17:02.453Z,62.50
2018-07-05T01:19:42.976Z,62.40
2018-07-05T01:22:23.960Z,62.50
2018-07-05T01:25:05.519Z,62.40
2018-07-05T01:27:48.124Z,62.40
2018-07-05T01:30:30.624Z,62.50
2018-07-05T01:33:11.695Z,62.50
2018-07-05T01:35:52.209Z,63.10
2018-07-05T01:38:47.357Z,62.40
2018-07-05T01:41:30.553Z,62.30
2018-07-05T01:44:11.333Z,62.40
2018-07-05T01:46:52.613Z,62.40
2018-07-05T01:49:33.222Z,62.40
2018-07-05T01:52:18.150Z,62.40
2018-07-05T01:54:59.600Z,62.40
2018-07-05T01:57:43.168Z,62.50
2018-07-05T02:00:24.043Z,62.40
2018-07-05T02:03:04.874Z,62.40
2018-07-05T02:09:02.770Z,62.40
2018-07-05T02:11:50.295Z,62.50
2018-07-05T02:14:37.407Z,62.50
2018-07-05T02:17:26.271Z,62.40
2018-07-05T02:20:13.933Z,62.50
2018-07-05T02:23:01.315Z,62.40
2018-07-05T02:25:42.846Z,62.50
2018-07-05T02:28:26.935Z,62.50
2018-07-05T02:31:08.134Z,62.50
2018-07-05T02:33:48.663Z,62.50
2018-07-05T02:39:16.006Z,62.50
2018-07-05T02:42:01.870Z,62.40
2018-07-05T02:44:43.471Z,62.40
2018-07-05T02:47:24.009Z,62.40
2018-07-05T02:50:04.977Z,62.40
2018-07-05T02:55:24.584Z,62.50
2018-07-05T02:58:09.897Z,62.50
2018-07-05T03:00:54.191Z,62.60
2018-07-05T03:03:36.541Z,62.60
2018-07-05T03:06:19.436Z,62.60
2018-07-05T03:09:04.071Z,62.60
2018-07-05T03:11:46.202Z,62.60
2018-07-05T03:14:29.551Z,62.70
2018-07-05T03:17:14.272Z,62.70
2018-07-05T03:19:59.242Z,62.70
2018-07-05T03:22:43.515Z,62.70
2018-07-05T03:28:03.529Z,63.20
2018-07-05T03:30:45.744Z,62.70
2018-07-05T03:33:29.496Z,62.70
2018-07-05T03:36:11.580Z,62.80
2018-07-05T03:38:55.654Z,62.90
2018-07-05T03:41:41.152Z,62.80
2018-07-05T03:44:23.974Z,62.80
2018-07-05T03:47:05.090Z,62.80
2018-07-05T03:49:48.844Z,62.80
2018-07-05T03:52:33.021Z,62.80
2018-07-05T03:55:19.126Z,62.80
2018-07-05T03:58:05.154Z,62.80
2018-07-05T04:00:49.609Z,62.90
2018-07-05T04:03:31.667Z,62.90
2018-07-05T04:06:13.626Z,62.90
2018-07-05T04:08:57.749Z,62.90
2018-07-05T04:11:40.806Z,62.90
2018-07-05T04:14:24.162Z,62.90
2018-07-05T04:17:06.649Z,62.90
2018-07-05T04:19:52.671Z,63.00
2018-07-05T04:22:34.376Z,63.00
2018-07-05T04:25:17.620Z,63.00
2018-07-05T04:28:01.719Z,63.80
2018-07-05T04:30:46.924Z,63.20
2018-07-05T04:33:35.050Z,63.20
2018-07-05T04:36:16.169Z,63.20
2018-07-05T04:41:40.688Z,63.40
2018-07-05T04:44:25.303Z,63.40
2018-07-05T04:49:45.569Z,63.40
2018-07-05T04:52:35.776Z,63.50
2018-07-05T04:55:24.076Z,63.50
2018-07-05T04:58:16.013Z,63.50
2018-07-05T05:01:06.524Z,63.60
2018-07-05T05:03:56.879Z,63.50
2018-07-05T05:06:41.104Z,63.70
2018-07-05T05:09:25.506Z,63.70
2018-07-05T05:12:12.876Z,63.70
2018-07-05T05:15:01.286Z,63.80
2018-07-05T05:17:52.460Z,64.40
2018-07-05T05:20:39.402Z,64.30
2018-07-05T05:23:27.500Z,64.20
2018-07-05T05:26:15.195Z,64.20
2018-07-05T05:29:00.358Z,64.00
2018-07-05T05:31:53.617Z,64.10
2018-07-05T05:34:42.453Z,64.00
2018-07-05T05:37:31.971Z,64.10
2018-07-05T05:40:20.453Z,64.10
2018-07-05T05:43:04.664Z,64.10
2018-07-05T05:45:46.401Z,64.10
2018-07-05T05:48:33.899Z,64.10
2018-07-05T05:51:18.379Z,64.00
2018-07-05T05:53:59.217Z,64.40
2018-07-05T05:56:48.212Z,64.20
2018-07-05T05:59:35.348Z,64.30
2018-07-05T06:02:27.533Z,64.20
2018-07-05T06:05:09.775Z,64.20
2018-07-05T06:07:50.333Z,64.50
2018-07-05T06:10:30.995Z,64.70
2018-07-05T06:13:11.670Z,64.70
2018-07-05T06:15:52.348Z,65.00
2018-07-05T06:18:33.119Z,64.90
2018-07-05T06:21:14.508Z,64.70
2018-07-05T06:23:55.205Z,64.90
2018-07-05T06:26:35.713Z,64.80
2018-07-05T06:29:19.624Z,65.10
2018-07-05T06:32:00.204Z,65.00
2018-07-05T06:34:40.776Z,65.10
2018-07-05T06:39:56.086Z,65.20
2018-07-05T06:42:36.559Z,65.10
2018-07-05T06:45:18.030Z,65.30
2018-07-05T06:47:58.673Z,65.30
2018-07-05T06:50:39.893Z,65.30
2018-07-05T06:53:25.779Z,65.50
2018-07-05T06:56:07.307Z,65.40
2018-07-05T06:58:48.028Z,65.40
2018-07-05T07:01:31.008Z,65.30
2018-07-05T07:06:46.638Z,65.60
2018-07-05T07:09:27.750Z,65.90
2018-07-05T07:12:08.838Z,65.70
2018-07-05T07:14:50.218Z,65.80
2018-07-05T07:17:31.517Z,65.70
2018-07-05T07:20:20.691Z,65.80
2018-07-05T07:23:01.903Z,65.80
2018-07-05T07:25:44.325Z,66.00
2018-07-05T07:28:27.451Z,66.00
2018-07-05T07:31:12.121Z,66.10
2018-07-05T07:39:53.239Z,66.30
2018-07-05T07:42:21.436Z,66.30
2018-07-05T07:44:49.801Z,66.20
2018-07-05T07:47:18.060Z,66.20
2018-07-05T07:49:46.537Z,66.60
2018-07-05T07:52:14.763Z,66.90
2018-07-05T07:54:43.035Z,66.50
2018-07-05T11:19:58.308Z,66.70
2018-07-05T11:22:38.804Z,66.10
2018-07-05T11:25:19.365Z,66.20
2018-07-05T11:27:59.930Z,66.10
2018-07-05T11:30:40.453Z,66.10
2018-07-05T11:33:21.021Z,66.20
2018-07-05T11:44:59.653Z,66.40
2018-07-05T11:47:40.334Z,66.30
2018-07-05T11:50:20.882Z,66.20
2018-07-05T11:53:01.545Z,66.10
2018-07-05T11:55:42.066Z,66.20
2018-07-05T11:58:22.780Z,66.20
2018-07-05T12:01:03.264Z,66.10
2018-07-05T12:03:43.947Z,66.30
2018-07-05T12:06:24.575Z,66.30
2018-07-05T12:09:06.289Z,66.20
2018-07-05T12:11:47.236Z,66.20
2018-07-05T12:14:27.765Z,66.10
2018-07-05T12:17:08.305Z,66.20
2018-07-05T12:19:48.941Z,66.10
2018-07-05T12:22:29.434Z,66.50
2018-07-05T12:25:10.074Z,66.30
2018-07-05T12:27:50.691Z,66.00
2018-07-05T12:30:31.344Z,66.00
2018-07-05T12:33:12.566Z,65.90
2018-07-05T12:35:53.940Z,65.80
2018-07-05T12:41:13.639Z,65.80
2018-07-05T12:43:54.101Z,65.80
2018-07-05T12:46:34.777Z,65.80
2018-07-05T12:49:15.228Z,65.80
2018-07-05T12:51:55.823Z,65.70
2018-07-05T12:54:36.455Z,65.60
2018-07-05T12:59:51.530Z,65.60
2018-07-05T13:02:32.020Z,65.30
2018-07-05T13:05:12.603Z,65.50
2018-07-05T13:07:53.294Z,65.30
2018-07-05T13:10:33.817Z,65.30
2018-07-05T13:13:15.046Z,65.30
2018-07-05T13:15:55.648Z,65.30
2018-07-05T13:21:11.869Z,65.30
2018-07-05T13:23:54.900Z,65.60
2018-07-05T13:26:35.925Z,65.40
2018-07-05T13:29:16.493Z,65.40
2018-07-05T13:31:58.934Z,65.50
2018-07-05T13:34:39.372Z,65.30
2018-07-05T13:37:19.826Z,65.50
2018-07-05T13:40:00.541Z,65.50
2018-07-05T13:42:41.186Z,65.50
2018-07-05T13:45:21.798Z,65.50
2018-07-05T13:48:02.656Z,65.50
2018-07-05T13:50:43.631Z,65.60
2018-07-05T13:53:24.105Z,65.50
2018-07-05T13:56:05.604Z,65.40
2018-07-05T13:58:46.336Z,65.30
2018-07-05T14:01:26.937Z,65.20
2018-07-05T14:04:07.497Z,65.20
2018-07-05T14:06:47.944Z,65.20
2018-07-05T14:09:28.464Z,65.20
2018-07-05T14:12:09.001Z,65.20
2018-07-05T14:14:49.486Z,65.20
2018-07-05T14:17:30.993Z,65.30
2018-07-05T14:20:11.656Z,65.40
2018-07-05T14:22:52.442Z,65.20
2018-07-05T14:25:32.986Z,65.30
2018-07-05T14:28:13.516Z,65.20
2018-07-05T14:30:54.276Z,65.30
2018-07-05T14:33:34.730Z,65.30
2018-07-05T14:36:15.476Z,65.30
2018-07-05T14:38:56.142Z,65.30
2018-07-05T14:41:36.825Z,65.20
2018-07-05T14:44:17.568Z,65.20
2018-07-05T14:46:58.125Z,65.10
2018-07-05T14:49:38.759Z,65.20
2018-07-05T14:52:19.773Z,65.10
2018-07-05T14:55:00.434Z,65.00
2018-07-05T14:57:41.069Z,65.00
2018-07-05T15:00:23.133Z,65.10
2018-07-05T15:03:03.968Z,65.00
2018-07-05T15:05:44.878Z,65.00
2018-07-05T15:08:25.507Z,65.00
2018-07-05T15:11:06.329Z,64.90
2018-07-05T15:13:46.847Z,65.00
2018-07-05T15:16:27.449Z,65.00
2018-07-05T15:19:08.006Z,64.90
2018-07-05T15:21:48.518Z,65.00
2018-07-05T15:24:29.245Z,65.00
2018-07-05T15:27:10.022Z,65.00
2018-07-05T15:29:50.504Z,65.10
2018-07-05T15:32:31.230Z,65.20
2018-07-05T15:35:11.968Z,65.20
2018-07-05T15:37:52.733Z,65.20
2018-07-05T15:40:33.448Z,65.10
2018-07-05T15:43:14.211Z,65.10
2018-07-05T15:45:55.061Z,65.10
2018-07-05T15:48:35.810Z,65.00
2018-07-05T15:51:16.496Z,65.10
2018-07-05T15:53:57.176Z,65.10
2018-07-05T15:56:38.049Z,65.10
2018-07-05T15:59:18.840Z,65.10
2018-07-05T16:01:59.529Z,65.20
2018-07-05T16:04:40.451Z,65.10
2018-07-05T16:07:21.090Z,65.10
2018-07-05T16:10:01.880Z,65.20
2018-07-05T16:12:42.657Z,65.10
2018-07-05T16:15:23.425Z,65.10
2018-07-05T16:18:04.429Z,65.10
2018-07-05T16:20:44.978Z,65.20
2018-07-05T16:23:25.660Z,65.90
2018-07-05T16:26:06.276Z,65.10
2018-07-05T16:28:46.971Z,65.20
2018-07-05T16:31:27.674Z,65.10
2018-07-05T16:34:08.410Z,65.10
2018-07-05T16:36:49.172Z,65.10
2018-07-05T16:39:29.835Z,65.20
2018-07-05T16:42:10.970Z,65.10
2018-07-05T16:44:51.816Z,65.10
2018-07-05T16:47:32.646Z,65.10
2018-07-05T16:50:14.032Z,65.10
2018-07-05T16:52:54.696Z,65.00
2018-07-05T16:55:35.477Z,65.10
2018-07-05T16:58:16.157Z,65.10
2018-07-05T17:00:57.058Z,65.10
2018-07-05T17:03:38.497Z,65.20
2018-07-05T17:06:19.262Z,65.20
2018-07-05T17:09:00.462Z,65.20
2018-07-05T17:11:41.031Z,65.20
2018-07-05T17:14:21.599Z,65.20
2018-07-05T17:17:02.112Z,65.20
2018-07-05T17:19:43.276Z,65.20
2018-07-05T17:22:24.052Z,65.20
2018-07-05T17:25:05.490Z,65.30
2018-07-05T17:27:46.845Z,65.30
2018-07-05T17:30:27.387Z,65.30
2018-07-05T17:33:07.954Z,65.20
2018-07-05T17:35:48.614Z,65.10
2018-07-05T17:38:32.144Z,65.00
2018-07-05T17:41:13.315Z,65.30
2018-07-05T17:43:54.093Z,65.30
2018-07-05T17:46:34.940Z,65.30
2018-07-05T17:49:16.068Z,65.30
2018-07-05T17:51:56.790Z,65.30
2018-07-05T17:54:37.572Z,65.30
2018-07-05T17:57:18.733Z,65.40
2018-07-05T17:59:59.960Z,65.40
2018-07-05T18:02:41.073Z,65.40
2018-07-05T18:05:21.907Z,65.30
2018-07-05T18:08:02.937Z,65.40
2018-07-05T18:10:43.679Z,65.40
2018-07-05T18:13:24.194Z,65.40
2018-07-05T18:16:04.832Z,65.50
2018-07-05T18:18:45.325Z,65.60
2018-07-05T18:21:26.533Z,65.60
2018-07-05T18:24:07.575Z,65.60
2018-07-05T18:26:48.253Z,65.70
2018-07-05T18:29:28.938Z,65.70
2018-07-05T18:32:09.569Z,65.70
2018-07-05T18:34:50.361Z,66.30
2018-07-05T18:37:31.541Z,67.30
2018-07-05T18:40:12.053Z,66.90
2018-07-05T18:42:52.870Z,66.50
2018-07-05T18:45:33.655Z,66.20
2018-07-05T18:48:14.476Z,66.10
2018-07-05T18:50:55.394Z,65.90
2018-07-05T18:53:36.081Z,65.80
2018-07-05T18:56:17.022Z,65.70
2018-07-05T18:58:57.800Z,65.70
2018-07-05T19:01:38.515Z,65.70
2018-07-05T19:04:19.170Z,65.60
2018-07-05T19:06:59.910Z,65.60
2018-07-05T19:09:40.784Z,65.60
2018-07-05T19:12:21.749Z,65.50
2018-07-05T19:15:02.823Z,65.50
2018-07-05T19:17:43.893Z,65.20
2018-07-05T19:20:24.656Z,65.40
2018-07-05T19:23:12.723Z,65.40
2018-07-05T19:25:54.421Z,65.30
2018-07-05T19:28:34.917Z,65.40
2018-07-05T19:31:15.658Z,65.30
2018-07-05T19:33:56.650Z,65.30
2018-07-05T19:36:37.333Z,65.40
2018-07-05T19:39:22.376Z,65.30
2018-07-05T19:42:03.808Z,65.40
2018-07-05T19:44:44.383Z,65.30
2018-07-05T19:47:26.588Z,65.30
2018-07-05T19:50:07.601Z,65.20
2018-07-05T19:52:48.602Z,65.10
2018-07-05T19:55:31.922Z,65.20
2018-07-05T19:58:12.468Z,65.10
2018-07-05T20:00:53.483Z,65.10
2018-07-05T20:03:34.433Z,65.10
2018-07-05T20:06:16.041Z,65.10
2018-07-05T20:08:56.892Z,65.20
2018-07-05T20:11:40.518Z,65.10
2018-07-05T20:14:21.851Z,65.10
2018-07-05T20:17:02.591Z,65.20
2018-07-05T20:19:45.258Z,65.10
2018-07-05T20:22:27.455Z,65.10
2018-07-05T20:25:08.612Z,65.10
2018-07-05T20:27:49.384Z,65.20
2018-07-05T20:30:30.177Z,65.20
2018-07-05T20:33:10.929Z,65.20
2018-07-05T20:35:51.814Z,65.10
2018-07-05T20:38:32.448Z,65.00
2018-07-05T20:41:13.075Z,65.00
2018-07-05T20:43:54.997Z,65.10
2018-07-05T20:46:37.510Z,65.10
2018-07-05T20:49:18.967Z,65.10
2018-07-05T20:52:00.399Z,65.10
2018-07-05T20:54:43.165Z,65.10
2018-07-05T20:57:24.067Z,65.10
2018-07-05T21:00:04.659Z,65.10
2018-07-05T21:02:45.407Z,65.10
2018-07-05T21:05:26.454Z,65.10
2018-07-05T21:08:07.252Z,65.00
2018-07-05T21:10:57.254Z,65.00
2018-07-05T21:13:39.855Z,65.00
2018-07-05T21:16:22.954Z,65.00
2018-07-05T21:19:04.692Z,65.00
2018-07-05T21:21:46.232Z,65.00
2018-07-05T21:24:27.232Z,64.90
2018-07-05T21:27:07.820Z,64.90
2018-07-05T21:29:50.253Z,64.90
2018-07-05T21:32:31.354Z,64.90
2018-07-05T21:35:12.153Z,64.90
2018-07-05T21:37:52.988Z,65.00
2018-07-05T21:40:33.674Z,64.80
2018-07-05T21:43:15.133Z,65.00
2018-07-05T21:45:57.017Z,64.90
2018-07-05T21:48:38.229Z,65.00
2018-07-05T21:51:18.834Z,64.80
2018-07-05T21:53:59.622Z,64.90
2018-07-05T21:56:40.300Z,64.70
2018-07-05T22:01:56.513Z,64.80
2018-07-05T22:04:37.189Z,64.90
2018-07-05T22:07:18.213Z,64.90
2018-07-05T22:10:01.645Z,64.80
2018-07-05T22:12:51.060Z,64.70
2018-07-05T22:15:33.837Z,64.90
2018-07-05T22:18:22.683Z,64.50
2018-07-05T22:21:15.175Z,64.60
2018-07-05T22:24:01.749Z,64.60
2018-07-05T22:26:43.721Z,64.80
2018-07-05T22:29:30.738Z,64.60
2018-07-05T22:32:13.311Z,64.80
2018-07-05T22:34:56.203Z,64.70
2018-07-05T22:37:39.218Z,64.70
2018-07-05T22:40:20.564Z,64.70
2018-07-05T22:43:03.476Z,64.60
2018-07-05T22:45:49.295Z,64.80
2018-07-05T22:48:36.617Z,64.60
2018-07-05T22:51:19.077Z,64.50
2018-07-05T22:54:00.235Z,64.50
2018-07-05T22:56:40.927Z,64.40
2018-07-05T22:59:21.649Z,64.50
2018-07-05T23:02:02.352Z,64.50
2018-07-05T23:04:43.538Z,64.50
2018-07-05T23:07:24.171Z,64.60
2018-07-05T23:10:04.664Z,64.60
2018-07-05T23:12:46.195Z,64.40
2018-07-05T23:15:27.782Z,64.40
2018-07-05T23:18:08.468Z,64.20
2018-07-05T23:20:58.928Z,64.50
2018-07-05T23:23:41.035Z,64.40
2018-07-05T23:26:21.514Z,64.30
2018-07-05T23:29:01.897Z,64.20
2018-07-05T23:34:17.120Z,64.40
2018-07-05T23:36:57.727Z,64.40
2018-07-05T23:39:38.264Z,64.50
2018-07-05T23:42:18.872Z,64.40
2018-07-05T23:44:59.779Z,64.50
2018-07-05T23:47:40.344Z,64.60
2018-07-05T23:50:20.840Z,64.40
2018-07-05T23:53:01.506Z,64.40
2018-07-05T23:55:42.165Z,64.40
2018-07-05T23:58:22.821Z,64.50
